sensor_id;sensor_type;location;lat;lon;timestamp;P1;durP1;ratioP1;P2;durP2;ratioP2
78887;SDS011;68276;49.326;8.690;2023-05-10T00:02:06;4.22;;;0.90;;
78887;SDS011;68276;49.326;8.690;2023-05-10T00:04:32;4.50;;;0.90;;
78887;SDS011;68276;49.326;8.690;2023-05-10T00:06:57;11.82;;;2.08;;
78887;SDS011;68276;49.326;8.690;2023-05-10T00:09:23;3.63;;;1.08;;
78887;SDS011;68276;49.326;8.690;2023-05-10T00:11:48;3.67;;;1.10;;
78887;SDS011;68276;49.326;8.690;2023-05-10T00:14:13;3.87;;;1.20;;
78887;SDS011;68276;49.326;8.690;2023-05-10T00:16:39;4.90;;;1.23;;
78887;SDS011;68276;49.326;8.690;2023-05-10T00:19:04;3.60;;;1.10;;
78887;SDS011;68276;49.326;8.690;2023-05-10T00:21:30;4.38;;;1.17;;
78887;SDS011;68276;49.326;8.690;2023-05-10T00:23:55;5.47;;;1.50;;
78887;SDS011;68276;49.326;8.690;2023-05-10T00:26:20;4.90;;;1.33;;
78887;SDS011;68276;49.326;8.690;2023-05-10T00:28:46;3.80;;;1.20;;
78887;SDS011;68276;49.326;8.690;2023-05-10T00:31:11;2.63;;;1.17;;
78887;SDS011;68276;49.326;8.690;2023-05-10T00:33:36;5.55;;;1.33;;
78887;SDS011;68276;49.326;8.690;2023-05-10T00:36:02;3.37;;;1.23;;
78887;SDS011;68276;49.326;8.690;2023-05-10T00:38:28;3.30;;;1.20;;
78887;SDS011;68276;49.326;8.690;2023-05-10T00:40:53;5.20;;;1.23;;
78887;SDS011;68276;49.326;8.690;2023-05-10T00:43:18;2.97;;;1.10;;
78887;SDS011;68276;49.326;8.690;2023-05-10T00:45:44;4.50;;;1.10;;
78887;SDS011;68276;49.326;8.690;2023-05-10T00:48:09;2.63;;;1.00;;
78887;SDS011;68276;49.326;8.690;2023-05-10T00:50:35;3.25;;;1.00;;
78887;SDS011;68276;49.326;8.690;2023-05-10T00:53:00;2.45;;;0.82;;
78887;SDS011;68276;49.326;8.690;2023-05-10T00:55:27;2.30;;;0.77;;
78887;SDS011;68276;49.326;8.690;2023-05-10T00:57:53;3.40;;;1.30;;
78887;SDS011;68276;49.326;8.690;2023-05-10T01:00:18;3.05;;;0.95;;
78887;SDS011;68276;49.326;8.690;2023-05-10T01:02:44;2.72;;;0.90;;
78887;SDS011;68276;49.326;8.690;2023-05-10T01:05:11;2.75;;;1.13;;
78887;SDS011;68276;49.326;8.690;2023-05-10T01:07:36;4.35;;;1.25;;
78887;SDS011;68276;49.326;8.690;2023-05-10T01:10:02;2.17;;;0.77;;
78887;SDS011;68276;49.326;8.690;2023-05-10T01:12:27;4.00;;;0.90;;
78887;SDS011;68276;49.326;8.690;2023-05-10T01:14:53;2.50;;;0.98;;
78887;SDS011;68276;49.326;8.690;2023-05-10T01:17:19;2.92;;;0.82;;
78887;SDS011;68276;49.326;8.690;2023-05-10T01:19:46;5.82;;;0.98;;
78887;SDS011;68276;49.326;8.690;2023-05-10T01:38:57;4.20;;;0.90;;
78887;SDS011;68276;49.326;8.690;2023-05-10T01:44:14;1.50;;;0.75;;
78887;SDS011;68276;49.326;8.690;2023-05-10T01:46:46;2.13;;;1.10;;
78887;SDS011;68276;49.326;8.690;2023-05-10T01:49:26;2.58;;;0.82;;
78887;SDS011;68276;49.326;8.690;2023-05-10T01:52:00;1.67;;;0.80;;
78887;SDS011;68276;49.326;8.690;2023-05-10T01:54:31;1.25;;;0.70;;
78887;SDS011;68276;49.326;8.690;2023-05-10T01:57:03;1.83;;;0.80;;
78887;SDS011;68276;49.326;8.690;2023-05-10T01:59:33;1.75;;;0.70;;
78887;SDS011;68276;49.326;8.690;2023-05-10T02:02:05;2.13;;;0.90;;
78887;SDS011;68276;49.326;8.690;2023-05-10T02:04:32;1.95;;;0.70;;
78887;SDS011;68276;49.326;8.690;2023-05-10T02:07:00;3.20;;;0.85;;
78887;SDS011;68276;49.326;8.690;2023-05-10T02:09:26;2.45;;;0.82;;
78887;SDS011;68276;49.326;8.690;2023-05-10T02:11:54;3.13;;;1.00;;
78887;SDS011;68276;49.326;8.690;2023-05-10T02:14:22;4.22;;;1.05;;
78887;SDS011;68276;49.326;8.690;2023-05-10T02:16:49;3.05;;;1.00;;
78887;SDS011;68276;49.326;8.690;2023-05-10T02:19:16;2.90;;;1.00;;
78887;SDS011;68276;49.326;8.690;2023-05-10T02:21:44;2.63;;;1.00;;
78887;SDS011;68276;49.326;8.690;2023-05-10T02:24:10;3.28;;;1.33;;
78887;SDS011;68276;49.326;8.690;2023-05-10T02:26:36;4.05;;;0.82;;
78887;SDS011;68276;49.326;8.690;2023-05-10T02:29:09;2.08;;;0.80;;
78887;SDS011;68276;49.326;8.690;2023-05-10T02:31:37;2.05;;;0.93;;
78887;SDS011;68276;49.326;8.690;2023-05-10T02:34:03;2.83;;;0.95;;
78887;SDS011;68276;49.326;8.690;2023-05-10T02:36:31;3.97;;;1.00;;
78887;SDS011;68276;49.326;8.690;2023-05-10T02:38:58;4.03;;;1.23;;
78887;SDS011;68276;49.326;8.690;2023-05-10T02:41:26;4.47;;;1.00;;
78887;SDS011;68276;49.326;8.690;2023-05-10T02:43:55;2.25;;;0.82;;
78887;SDS011;68276;49.326;8.690;2023-05-10T02:46:24;2.78;;;0.90;;
78887;SDS011;68276;49.326;8.690;2023-05-10T02:48:50;2.67;;;1.10;;
78887;SDS011;68276;49.326;8.690;2023-05-10T02:51:16;3.33;;;1.10;;
78887;SDS011;68276;49.326;8.690;2023-05-10T02:53:44;2.75;;;1.02;;
78887;SDS011;68276;49.326;8.690;2023-05-10T02:56:13;4.65;;;1.10;;
78887;SDS011;68276;49.326;8.690;2023-05-10T02:58:44;3.42;;;1.38;;
78887;SDS011;68276;49.326;8.690;2023-05-10T03:01:10;3.83;;;1.30;;
78887;SDS011;68276;49.326;8.690;2023-05-10T03:03:36;4.47;;;1.30;;
78887;SDS011;68276;49.326;8.690;2023-05-10T03:06:01;4.78;;;1.60;;
78887;SDS011;68276;49.326;8.690;2023-05-10T03:08:26;4.30;;;1.27;;
78887;SDS011;68276;49.326;8.690;2023-05-10T03:10:55;4.07;;;1.30;;
78887;SDS011;68276;49.326;8.690;2023-05-10T03:13:32;5.32;;;1.40;;
78887;SDS011;68276;49.326;8.690;2023-05-10T03:16:10;5.95;;;1.25;;
78887;SDS011;68276;49.326;8.690;2023-05-10T03:21:08;4.65;;;1.40;;
78887;SDS011;68276;49.326;8.690;2023-05-10T03:23:48;3.97;;;1.40;;
78887;SDS011;68276;49.326;8.690;2023-05-10T03:26:23;4.70;;;1.30;;
78887;SDS011;68276;49.326;8.690;2023-05-10T03:31:17;4.88;;;1.40;;
78887;SDS011;68276;49.326;8.690;2023-05-10T03:33:47;5.00;;;1.63;;
78887;SDS011;68276;49.326;8.690;2023-05-10T03:36:17;4.82;;;1.65;;
78887;SDS011;68276;49.326;8.690;2023-05-10T03:38:42;4.00;;;1.40;;
78887;SDS011;68276;49.326;8.690;2023-05-10T03:41:08;5.13;;;1.70;;
78887;SDS011;68276;49.326;8.690;2023-05-10T03:43:33;4.28;;;1.42;;
78887;SDS011;68276;49.326;8.690;2023-05-10T03:45:58;4.68;;;1.63;;
78887;SDS011;68276;49.326;8.690;2023-05-10T03:48:26;5.20;;;1.70;;
78887;SDS011;68276;49.326;8.690;2023-05-10T03:50:52;5.17;;;1.73;;
78887;SDS011;68276;49.326;8.690;2023-05-10T03:53:17;5.60;;;1.70;;
78887;SDS011;68276;49.326;8.690;2023-05-10T03:55:42;5.80;;;1.90;;
78887;SDS011;68276;49.326;8.690;2023-05-10T03:58:10;5.82;;;1.70;;
78887;SDS011;68276;49.326;8.690;2023-05-10T04:00:36;5.90;;;1.92;;
78887;SDS011;68276;49.326;8.690;2023-05-10T04:03:02;4.95;;;1.65;;
78887;SDS011;68276;49.326;8.690;2023-05-10T04:05:27;5.75;;;1.77;;
78887;SDS011;68276;49.326;8.690;2023-05-10T04:07:52;6.93;;;1.83;;
78887;SDS011;68276;49.326;8.690;2023-05-10T04:10:18;7.23;;;2.10;;
78887;SDS011;68276;49.326;8.690;2023-05-10T04:12:43;5.47;;;1.80;;
78887;SDS011;68276;49.326;8.690;2023-05-10T04:15:09;5.90;;;1.70;;
78887;SDS011;68276;49.326;8.690;2023-05-10T04:17:34;4.95;;;1.80;;
78887;SDS011;68276;49.326;8.690;2023-05-10T04:19:59;5.37;;;1.77;;
78887;SDS011;68276;49.326;8.690;2023-05-10T04:22:25;8.40;;;1.80;;
78887;SDS011;68276;49.326;8.690;2023-05-10T04:24:50;5.83;;;1.40;;
78887;SDS011;68276;49.326;8.690;2023-05-10T04:27:16;6.65;;;1.85;;
78887;SDS011;68276;49.326;8.690;2023-05-10T04:29:41;5.75;;;1.85;;
78887;SDS011;68276;49.326;8.690;2023-05-10T04:32:06;7.73;;;1.87;;
78887;SDS011;68276;49.326;8.690;2023-05-10T04:34:32;5.80;;;1.90;;
78887;SDS011;68276;49.326;8.690;2023-05-10T04:36:59;6.15;;;1.85;;
78887;SDS011;68276;49.326;8.690;2023-05-10T04:39:24;9.02;;;2.30;;
78887;SDS011;68276;49.326;8.690;2023-05-10T04:41:50;6.43;;;2.30;;
78887;SDS011;68276;49.326;8.690;2023-05-10T04:44:15;5.47;;;1.90;;
78887;SDS011;68276;49.326;8.690;2023-05-10T04:46:40;6.07;;;2.00;;
78887;SDS011;68276;49.326;8.690;2023-05-10T04:49:06;7.63;;;2.30;;
78887;SDS011;68276;49.326;8.690;2023-05-10T04:51:31;6.33;;;2.37;;
78887;SDS011;68276;49.326;8.690;2023-05-10T04:53:57;6.13;;;2.30;;
78887;SDS011;68276;49.326;8.690;2023-05-10T04:56:22;9.13;;;3.80;;
78887;SDS011;68276;49.326;8.690;2023-05-10T04:58:47;7.23;;;2.70;;
78887;SDS011;68276;49.326;8.690;2023-05-10T05:01:13;7.57;;;2.37;;
78887;SDS011;68276;49.326;8.690;2023-05-10T05:03:39;6.47;;;2.28;;
78887;SDS011;68276;49.326;8.690;2023-05-10T05:06:04;6.10;;;2.55;;
78887;SDS011;68276;49.326;8.690;2023-05-10T05:08:30;8.45;;;2.45;;
78887;SDS011;68276;49.326;8.690;2023-05-10T05:11:18;8.65;;;3.22;;
78887;SDS011;68276;49.326;8.690;2023-05-10T05:13:44;7.22;;;2.83;;
78887;SDS011;68276;49.326;8.690;2023-05-10T05:16:10;10.23;;;2.60;;
78887;SDS011;68276;49.326;8.690;2023-05-10T05:18:36;6.53;;;2.33;;
78887;SDS011;68276;49.326;8.690;2023-05-10T05:21:01;7.50;;;2.58;;
78887;SDS011;68276;49.326;8.690;2023-05-10T05:23:27;7.32;;;2.50;;
78887;SDS011;68276;49.326;8.690;2023-05-10T05:25:52;7.15;;;2.42;;
78887;SDS011;68276;49.326;8.690;2023-05-10T05:28:18;8.27;;;2.47;;
78887;SDS011;68276;49.326;8.690;2023-05-10T05:30:45;6.18;;;2.17;;
78887;SDS011;68276;49.326;8.690;2023-05-10T05:33:10;7.10;;;2.40;;
78887;SDS011;68276;49.326;8.690;2023-05-10T05:35:35;8.13;;;2.77;;
78887;SDS011;68276;49.326;8.690;2023-05-10T05:38:01;7.83;;;2.47;;
78887;SDS011;68276;49.326;8.690;2023-05-10T05:40:26;9.77;;;2.87;;
78887;SDS011;68276;49.326;8.690;2023-05-10T05:42:51;5.77;;;2.20;;
78887;SDS011;68276;49.326;8.690;2023-05-10T05:45:17;8.77;;;2.58;;
78887;SDS011;68276;49.326;8.690;2023-05-10T05:47:42;6.20;;;2.53;;
78887;SDS011;68276;49.326;8.690;2023-05-10T05:50:08;9.88;;;3.17;;
78887;SDS011;68276;49.326;8.690;2023-05-10T05:52:34;7.75;;;2.58;;
78887;SDS011;68276;49.326;8.690;2023-05-10T05:54:59;10.15;;;3.33;;
78887;SDS011;68276;49.326;8.690;2023-05-10T05:57:25;7.07;;;2.50;;
78887;SDS011;68276;49.326;8.690;2023-05-10T06:02:17;9.45;;;2.60;;
78887;SDS011;68276;49.326;8.690;2023-05-10T06:04:42;7.35;;;2.55;;
78887;SDS011;68276;49.326;8.690;2023-05-10T06:07:08;6.57;;;2.67;;
78887;SDS011;68276;49.326;8.690;2023-05-10T06:09:33;9.20;;;2.70;;
78887;SDS011;68276;49.326;8.690;2023-05-10T06:11:58;10.10;;;2.60;;
78887;SDS011;68276;49.326;8.690;2023-05-10T06:14:24;7.85;;;3.03;;
78887;SDS011;68276;49.326;8.690;2023-05-10T06:16:49;9.10;;;2.65;;
78887;SDS011;68276;49.326;8.690;2023-05-10T06:19:15;8.60;;;3.17;;
78887;SDS011;68276;49.326;8.690;2023-05-10T06:21:40;14.50;;;2.87;;
78887;SDS011;68276;49.326;8.690;2023-05-10T06:24:06;7.03;;;2.53;;
78887;SDS011;68276;49.326;8.690;2023-05-10T06:26:31;8.15;;;2.67;;
78887;SDS011;68276;49.326;8.690;2023-05-10T06:28:57;6.93;;;2.72;;
78887;SDS011;68276;49.326;8.690;2023-05-10T06:31:23;16.33;;;2.90;;
78887;SDS011;68276;49.326;8.690;2023-05-10T06:33:48;6.23;;;2.60;;
78887;SDS011;68276;49.326;8.690;2023-05-10T06:36:14;6.25;;;2.22;;
78887;SDS011;68276;49.326;8.690;2023-05-10T06:38:39;7.20;;;2.70;;
78887;SDS011;68276;49.326;8.690;2023-05-10T06:41:05;6.25;;;2.40;;
78887;SDS011;68276;49.326;8.690;2023-05-10T06:43:30;5.97;;;2.30;;
78887;SDS011;68276;49.326;8.690;2023-05-10T06:45:56;7.35;;;2.70;;
78887;SDS011;68276;49.326;8.690;2023-05-10T06:48:22;6.03;;;2.33;;
78887;SDS011;68276;49.326;8.690;2023-05-10T06:50:47;5.70;;;2.20;;
78887;SDS011;68276;49.326;8.690;2023-05-10T06:53:15;6.97;;;2.45;;
78887;SDS011;68276;49.326;8.690;2023-05-10T06:55:40;6.35;;;2.25;;
78887;SDS011;68276;49.326;8.690;2023-05-10T06:58:06;7.72;;;2.58;;
78887;SDS011;68276;49.326;8.690;2023-05-10T07:00:32;6.90;;;2.53;;
78887;SDS011;68276;49.326;8.690;2023-05-10T07:02:57;8.35;;;2.58;;
78887;SDS011;68276;49.326;8.690;2023-05-10T07:05:23;7.80;;;2.60;;
78887;SDS011;68276;49.326;8.690;2023-05-10T07:07:48;6.13;;;2.10;;
78887;SDS011;68276;49.326;8.690;2023-05-10T07:10:14;7.07;;;2.30;;
78887;SDS011;68276;49.326;8.690;2023-05-10T07:12:39;6.05;;;2.40;;
78887;SDS011;68276;49.326;8.690;2023-05-10T07:15:05;7.03;;;2.50;;
78887;SDS011;68276;49.326;8.690;2023-05-10T07:17:31;6.40;;;2.03;;
78887;SDS011;68276;49.326;8.690;2023-05-10T07:19:58;7.53;;;2.10;;
78887;SDS011;68276;49.326;8.690;2023-05-10T07:22:26;5.75;;;1.98;;
78887;SDS011;68276;49.326;8.690;2023-05-10T07:24:51;5.57;;;2.28;;
78887;SDS011;68276;49.326;8.690;2023-05-10T07:27:16;5.93;;;2.13;;
78887;SDS011;68276;49.326;8.690;2023-05-10T07:29:42;5.70;;;2.10;;
78887;SDS011;68276;49.326;8.690;2023-05-10T07:32:07;6.97;;;2.13;;
78887;SDS011;68276;49.326;8.690;2023-05-10T07:34:33;4.95;;;1.80;;
78887;SDS011;68276;49.326;8.690;2023-05-10T07:37:06;6.25;;;2.08;;
78887;SDS011;68276;49.326;8.690;2023-05-10T07:39:32;4.75;;;1.85;;
78887;SDS011;68276;49.326;8.690;2023-05-10T07:41:57;5.72;;;2.08;;
78887;SDS011;68276;49.326;8.690;2023-05-10T07:44:23;6.60;;;2.08;;
78887;SDS011;68276;49.326;8.690;2023-05-10T07:46:48;5.85;;;2.13;;
78887;SDS011;68276;49.326;8.690;2023-05-10T07:49:14;6.07;;;2.17;;
78887;SDS011;68276;49.326;8.690;2023-05-10T07:51:40;6.85;;;2.22;;
78887;SDS011;68276;49.326;8.690;2023-05-10T07:54:06;6.15;;;2.05;;
78887;SDS011;68276;49.326;8.690;2023-05-10T07:56:31;5.53;;;1.85;;
78887;SDS011;68276;49.326;8.690;2023-05-10T07:58:58;5.90;;;2.22;;
78887;SDS011;68276;49.326;8.690;2023-05-10T08:01:24;8.63;;;1.90;;
78887;SDS011;68276;49.326;8.690;2023-05-10T08:03:51;6.65;;;2.00;;
78887;SDS011;68276;49.326;8.690;2023-05-10T08:06:18;5.10;;;1.60;;
78887;SDS011;68276;49.326;8.690;2023-05-10T08:08:48;4.38;;;1.60;;
78887;SDS011;68276;49.326;8.690;2023-05-10T08:11:18;5.15;;;1.80;;
78887;SDS011;68276;49.326;8.690;2023-05-10T08:13:45;4.50;;;1.50;;
78887;SDS011;68276;49.326;8.690;2023-05-10T08:16:12;4.50;;;1.52;;
78887;SDS011;68276;49.326;8.690;2023-05-10T08:18:37;5.53;;;1.58;;
78887;SDS011;68276;49.326;8.690;2023-05-10T08:21:04;6.85;;;1.60;;
78887;SDS011;68276;49.326;8.690;2023-05-10T08:23:30;4.82;;;1.63;;
78887;SDS011;68276;49.326;8.690;2023-05-10T08:25:55;6.05;;;1.52;;
78887;SDS011;68276;49.326;8.690;2023-05-10T08:28:21;4.13;;;1.55;;
78887;SDS011;68276;49.326;8.690;2023-05-10T08:30:46;4.80;;;1.38;;
78887;SDS011;68276;49.326;8.690;2023-05-10T08:33:14;4.95;;;1.30;;
78887;SDS011;68276;49.326;8.690;2023-05-10T08:35:43;5.32;;;1.98;;
78887;SDS011;68276;49.326;8.690;2023-05-10T08:38:08;4.38;;;1.30;;
78887;SDS011;68276;49.326;8.690;2023-05-10T08:40:34;5.10;;;1.50;;
78887;SDS011;68276;49.326;8.690;2023-05-10T08:43:05;3.10;;;1.20;;
78887;SDS011;68276;49.326;8.690;2023-05-10T08:45:41;2.92;;;1.10;;
78887;SDS011;68276;49.326;8.690;2023-05-10T08:48:09;5.00;;;1.35;;
78887;SDS011;68276;49.326;8.690;2023-05-10T08:50:36;3.13;;;1.30;;
78887;SDS011;68276;49.326;8.690;2023-05-10T08:53:06;2.78;;;1.10;;
78887;SDS011;68276;49.326;8.690;2023-05-10T08:55:34;2.72;;;1.10;;
78887;SDS011;68276;49.326;8.690;2023-05-10T08:58:09;4.15;;;1.30;;
78887;SDS011;68276;49.326;8.690;2023-05-10T09:00:37;4.00;;;1.25;;
78887;SDS011;68276;49.326;8.690;2023-05-10T09:03:03;3.70;;;1.00;;
78887;SDS011;68276;49.326;8.690;2023-05-10T09:05:30;2.80;;;0.88;;
78887;SDS011;68276;49.326;8.690;2023-05-10T09:07:56;3.40;;;1.10;;
78887;SDS011;68276;49.326;8.690;2023-05-10T09:10:21;2.15;;;0.80;;
78887;SDS011;68276;49.326;8.690;2023-05-10T09:12:50;2.58;;;0.73;;
78887;SDS011;68276;49.326;8.690;2023-05-10T09:15:16;2.92;;;0.82;;
78887;SDS011;68276;49.326;8.690;2023-05-10T09:17:44;2.17;;;1.00;;
78887;SDS011;68276;49.326;8.690;2023-05-10T09:20:10;2.33;;;0.80;;
78887;SDS011;68276;49.326;8.690;2023-05-10T09:22:36;2.97;;;0.90;;
78887;SDS011;68276;49.326;8.690;2023-05-10T09:27:38;3.25;;;0.90;;
78887;SDS011;68276;49.326;8.690;2023-05-10T09:30:05;4.15;;;1.10;;
78887;SDS011;68276;49.326;8.690;2023-05-10T09:32:37;2.88;;;1.00;;
78887;SDS011;68276;49.326;8.690;2023-05-10T09:35:10;2.17;;;0.70;;
78887;SDS011;68276;49.326;8.690;2023-05-10T09:37:40;2.63;;;0.90;;
78887;SDS011;68276;49.326;8.690;2023-05-10T09:40:08;3.92;;;1.00;;
78887;SDS011;68276;49.326;8.690;2023-05-10T09:45:16;2.17;;;0.85;;
78887;SDS011;68276;49.326;8.690;2023-05-10T09:47:42;4.00;;;0.68;;
78887;SDS011;68276;49.326;8.690;2023-05-10T09:50:07;1.40;;;0.77;;
78887;SDS011;68276;49.326;8.690;2023-05-10T09:52:50;2.65;;;1.15;;
78887;SDS011;68276;49.326;8.690;2023-05-10T09:55:18;2.58;;;0.98;;
78887;SDS011;68276;49.326;8.690;2023-05-10T09:57:45;1.92;;;0.70;;
78887;SDS011;68276;49.326;8.690;2023-05-10T10:00:16;2.78;;;0.80;;
78887;SDS011;68276;49.326;8.690;2023-05-10T10:02:45;5.82;;;0.90;;
78887;SDS011;68276;49.326;8.690;2023-05-10T10:05:22;2.90;;;0.95;;
78887;SDS011;68276;49.326;8.690;2023-05-10T10:07:57;2.55;;;0.70;;
78887;SDS011;68276;49.326;8.690;2023-05-10T10:10:26;2.63;;;0.90;;
78887;SDS011;68276;49.326;8.690;2023-05-10T10:12:53;2.30;;;0.88;;
78887;SDS011;68276;49.326;8.690;2023-05-10T10:15:22;1.88;;;0.70;;
78887;SDS011;68276;49.326;8.690;2023-05-10T10:17:53;1.35;;;0.63;;
78887;SDS011;68276;49.326;8.690;2023-05-10T10:20:22;4.10;;;0.80;;
78887;SDS011;68276;49.326;8.690;2023-05-10T10:22:48;2.28;;;0.80;;
78887;SDS011;68276;49.326;8.690;2023-05-10T10:25:16;1.40;;;0.80;;
78887;SDS011;68276;49.326;8.690;2023-05-10T10:30:42;3.90;;;0.70;;
78887;SDS011;68276;49.326;8.690;2023-05-10T10:35:55;1.90;;;0.75;;
78887;SDS011;68276;49.326;8.690;2023-05-10T10:38:24;1.88;;;0.73;;
78887;SDS011;68276;49.326;8.690;2023-05-10T10:41:01;2.38;;;0.43;;
78887;SDS011;68276;49.326;8.690;2023-05-10T10:43:28;1.83;;;0.77;;
78887;SDS011;68276;49.326;8.690;2023-05-10T10:48:35;1.45;;;0.70;;
78887;SDS011;68276;49.326;8.690;2023-05-10T10:51:00;2.80;;;0.50;;
78887;SDS011;68276;49.326;8.690;2023-05-10T10:53:27;0.40;;;0.30;;
78887;SDS011;68276;49.326;8.690;2023-05-10T10:56:02;2.47;;;0.90;;
78887;SDS011;68276;49.326;8.690;2023-05-10T10:58:39;2.58;;;0.80;;
78887;SDS011;68276;49.326;8.690;2023-05-10T11:01:12;2.03;;;0.60;;
78887;SDS011;68276;49.326;8.690;2023-05-10T11:04:24;0.88;;;0.50;;
78887;SDS011;68276;49.326;8.690;2023-05-10T11:08:57;2.70;;;0.70;;
78887;SDS011;68276;49.326;8.690;2023-05-10T11:11:23;2.50;;;0.55;;
78887;SDS011;68276;49.326;8.690;2023-05-10T11:13:48;0.70;;;0.55;;
78887;SDS011;68276;49.326;8.690;2023-05-10T11:16:21;1.52;;;0.52;;
78887;SDS011;68276;49.326;8.690;2023-05-10T11:21:32;1.33;;;0.70;;
78887;SDS011;68276;49.326;8.690;2023-05-10T11:23:59;2.08;;;0.52;;
78887;SDS011;68276;49.326;8.690;2023-05-10T11:26:34;1.23;;;0.55;;
78887;SDS011;68276;49.326;8.690;2023-05-10T11:29:00;0.55;;;0.40;;
78887;SDS011;68276;49.326;8.690;2023-05-10T11:31:27;1.35;;;0.57;;
78887;SDS011;68276;49.326;8.690;2023-05-10T11:36:26;1.83;;;0.60;;
78887;SDS011;68276;49.326;8.690;2023-05-10T11:38:54;2.33;;;0.60;;
78887;SDS011;68276;49.326;8.690;2023-05-10T11:41:21;2.47;;;0.90;;
78887;SDS011;68276;49.326;8.690;2023-05-10T11:43:51;2.38;;;0.70;;
78887;SDS011;68276;49.326;8.690;2023-05-10T11:46:19;2.05;;;0.95;;
78887;SDS011;68276;49.326;8.690;2023-05-10T11:48:46;2.15;;;0.85;;
78887;SDS011;68276;49.326;8.690;2023-05-10T11:51:14;3.70;;;0.70;;
78887;SDS011;68276;49.326;8.690;2023-05-10T11:53:40;1.93;;;1.00;;
78887;SDS011;68276;49.326;8.690;2023-05-10T11:56:06;1.80;;;0.63;;
78887;SDS011;68276;49.326;8.690;2023-05-10T11:58:33;1.67;;;0.75;;
78887;SDS011;68276;49.326;8.690;2023-05-10T12:01:00;4.20;;;0.82;;
78887;SDS011;68276;49.326;8.690;2023-05-10T12:03:26;2.38;;;0.90;;
78887;SDS011;68276;49.326;8.690;2023-05-10T12:05:52;3.42;;;0.90;;
78887;SDS011;68276;49.326;8.690;2023-05-10T12:10:48;3.22;;;0.95;;
78887;SDS011;68276;49.326;8.690;2023-05-10T12:13:14;4.72;;;1.08;;
78887;SDS011;68276;49.326;8.690;2023-05-10T12:15:40;2.80;;;0.90;;
78887;SDS011;68276;49.326;8.690;2023-05-10T12:18:07;2.80;;;0.70;;
78887;SDS011;68276;49.326;8.690;2023-05-10T12:20:35;4.75;;;1.10;;
78887;SDS011;68276;49.326;8.690;2023-05-10T12:23:00;3.47;;;0.90;;
78887;SDS011;68276;49.326;8.690;2023-05-10T12:25:35;2.60;;;0.88;;
78887;SDS011;68276;49.326;8.690;2023-05-10T12:28:05;4.70;;;0.80;;
78887;SDS011;68276;49.326;8.690;2023-05-10T12:30:35;2.53;;;0.65;;
78887;SDS011;68276;49.326;8.690;2023-05-10T12:33:02;2.67;;;0.70;;
78887;SDS011;68276;49.326;8.690;2023-05-10T12:35:43;2.90;;;0.77;;
78887;SDS011;68276;49.326;8.690;2023-05-10T12:41:13;1.83;;;0.80;;
78887;SDS011;68276;49.326;8.690;2023-05-10T12:43:39;3.60;;;0.73;;
78887;SDS011;68276;49.326;8.690;2023-05-10T12:46:09;1.55;;;0.70;;
78887;SDS011;68276;49.326;8.690;2023-05-10T12:48:35;0.90;;;0.45;;
78887;SDS011;68276;49.326;8.690;2023-05-10T12:51:05;5.43;;;0.90;;
78887;SDS011;68276;49.326;8.690;2023-05-10T12:53:35;2.55;;;0.55;;
78887;SDS011;68276;49.326;8.690;2023-05-10T12:56:00;3.53;;;0.75;;
78887;SDS011;68276;49.326;8.690;2023-05-10T12:58:26;3.17;;;0.82;;
78887;SDS011;68276;49.326;8.690;2023-05-10T13:00:52;2.58;;;0.77;;
78887;SDS011;68276;49.326;8.690;2023-05-10T13:03:17;7.63;;;2.30;;
78887;SDS011;68276;49.326;8.690;2023-05-10T13:05:43;2.67;;;0.70;;
78887;SDS011;68276;49.326;8.690;2023-05-10T13:08:08;1.42;;;0.70;;
78887;SDS011;68276;49.326;8.690;2023-05-10T13:10:33;2.08;;;0.70;;
78887;SDS011;68276;49.326;8.690;2023-05-10T13:12:59;2.88;;;0.90;;
78887;SDS011;68276;49.326;8.690;2023-05-10T13:15:25;1.33;;;0.70;;
78887;SDS011;68276;49.326;8.690;2023-05-10T13:17:51;1.70;;;0.75;;
78887;SDS011;68276;49.326;8.690;2023-05-10T13:20:19;5.35;;;0.90;;
78887;SDS011;68276;49.326;8.690;2023-05-10T13:22:44;2.75;;;1.02;;
78887;SDS011;68276;49.326;8.690;2023-05-10T13:25:10;3.35;;;0.77;;
78887;SDS011;68276;49.326;8.690;2023-05-10T13:27:36;2.65;;;0.75;;
78887;SDS011;68276;49.326;8.690;2023-05-10T13:30:02;4.20;;;0.70;;
78887;SDS011;68276;49.326;8.690;2023-05-10T13:32:29;2.70;;;0.98;;
78887;SDS011;68276;49.326;8.690;2023-05-10T13:34:55;2.08;;;0.55;;
78887;SDS011;68276;49.326;8.690;2023-05-10T13:37:21;1.20;;;0.57;;
78887;SDS011;68276;49.326;8.690;2023-05-10T13:39:47;1.40;;;0.70;;
78887;SDS011;68276;49.326;8.690;2023-05-10T13:42:12;1.80;;;0.65;;
78887;SDS011;68276;49.326;8.690;2023-05-10T13:44:38;5.82;;;0.80;;
78887;SDS011;68276;49.326;8.690;2023-05-10T13:47:04;1.95;;;0.70;;
78887;SDS011;68276;49.326;8.690;2023-05-10T13:49:30;1.95;;;0.70;;
78887;SDS011;68276;49.326;8.690;2023-05-10T13:51:55;2.80;;;0.70;;
78887;SDS011;68276;49.326;8.690;2023-05-10T13:54:21;1.35;;;0.60;;
78887;SDS011;68276;49.326;8.690;2023-05-10T13:56:47;2.35;;;0.70;;
78887;SDS011;68276;49.326;8.690;2023-05-10T13:59:13;3.03;;;0.60;;
78887;SDS011;68276;49.326;8.690;2023-05-10T14:01:39;1.83;;;0.65;;
78887;SDS011;68276;49.326;8.690;2023-05-10T14:04:06;7.22;;;1.50;;
78887;SDS011;68276;49.326;8.690;2023-05-10T14:06:35;2.63;;;0.60;;
78887;SDS011;68276;49.326;8.690;2023-05-10T14:09:01;3.38;;;0.70;;
78887;SDS011;68276;49.326;8.690;2023-05-10T14:11:27;1.33;;;0.40;;
78887;SDS011;68276;49.326;8.690;2023-05-10T14:13:52;2.67;;;0.93;;
78887;SDS011;68276;49.326;8.690;2023-05-10T14:16:18;2.80;;;0.60;;
78887;SDS011;68276;49.326;8.690;2023-05-10T14:21:09;1.97;;;0.70;;
78887;SDS011;68276;49.326;8.690;2023-05-10T14:23:35;2.10;;;0.60;;
78887;SDS011;68276;49.326;8.690;2023-05-10T14:26:00;1.85;;;0.50;;
78887;SDS011;68276;49.326;8.690;2023-05-10T14:28:26;2.83;;;0.60;;
78887;SDS011;68276;49.326;8.690;2023-05-10T14:30:51;1.90;;;0.70;;
78887;SDS011;68276;49.326;8.690;2023-05-10T14:33:17;5.97;;;0.90;;
78887;SDS011;68276;49.326;8.690;2023-05-10T14:35:44;2.88;;;0.68;;
78887;SDS011;68276;49.326;8.690;2023-05-10T14:38:10;0.80;;;0.50;;
78887;SDS011;68276;49.326;8.690;2023-05-10T14:40:36;0.73;;;0.43;;
78887;SDS011;68276;49.326;8.690;2023-05-10T14:43:01;1.70;;;0.50;;
78887;SDS011;68276;49.326;8.690;2023-05-10T14:45:26;2.08;;;0.50;;
78887;SDS011;68276;49.326;8.690;2023-05-10T14:47:52;2.45;;;0.60;;
78887;SDS011;68276;49.326;8.690;2023-05-10T14:50:17;2.80;;;0.53;;
78887;SDS011;68276;49.326;8.690;2023-05-10T14:52:43;1.50;;;0.70;;
78887;SDS011;68276;49.326;8.690;2023-05-10T14:55:09;0.85;;;0.50;;
78887;SDS011;68276;49.326;8.690;2023-05-10T15:00:00;2.17;;;0.60;;
78887;SDS011;68276;49.326;8.690;2023-05-10T15:02:25;0.60;;;0.40;;
78887;SDS011;68276;49.326;8.690;2023-05-10T15:04:51;2.83;;;0.80;;
78887;SDS011;68276;49.326;8.690;2023-05-10T15:07:16;1.33;;;0.40;;
78887;SDS011;68276;49.326;8.690;2023-05-10T15:09:43;2.03;;;0.50;;
78887;SDS011;68276;49.326;8.690;2023-05-10T15:14:34;1.02;;;0.45;;
78887;SDS011;68276;49.326;8.690;2023-05-10T15:17:01;3.13;;;0.57;;
78887;SDS011;68276;49.326;8.690;2023-05-10T15:19:26;0.80;;;0.50;;
78887;SDS011;68276;49.326;8.690;2023-05-10T15:21:53;2.67;;;0.57;;
78887;SDS011;68276;49.326;8.690;2023-05-10T15:24:19;0.80;;;0.40;;
78887;SDS011;68276;49.326;8.690;2023-05-10T15:26:44;4.75;;;0.55;;
78887;SDS011;68276;49.326;8.690;2023-05-10T15:29:13;3.08;;;0.68;;
78887;SDS011;68276;49.326;8.690;2023-05-10T15:31:48;2.67;;;0.65;;
78887;SDS011;68276;49.326;8.690;2023-05-10T15:34:14;1.52;;;0.63;;
78887;SDS011;68276;49.326;8.690;2023-05-10T15:36:39;1.92;;;0.60;;
78887;SDS011;68276;49.326;8.690;2023-05-10T15:39:05;0.45;;;0.40;;
78887;SDS011;68276;49.326;8.690;2023-05-10T15:41:31;1.73;;;0.60;;
78887;SDS011;68276;49.326;8.690;2023-05-10T15:43:57;3.00;;;0.75;;
78887;SDS011;68276;49.326;8.690;2023-05-10T15:46:28;2.13;;;0.57;;
78887;SDS011;68276;49.326;8.690;2023-05-10T15:48:54;1.30;;;0.47;;